createdAt,value
2016-05-20T00:00:52.379Z,1009.9
2016-05-20T00:01:52.382Z,1009.95
2016-05-20T00:02:52.384Z,1009.95
2016-05-20T00:03:52.403Z,1009.98
2016-05-20T00:04:52.389Z,1009.96
2016-05-20T00:05:52.408Z,1009.98
2016-05-20T00:06:52.411Z,1009.96
2016-05-20T00:07:52.414Z,1009.93
2016-05-20T00:08:52.416Z,1009.93
2016-05-20T00:09:52.419Z,1009.98
2016-05-20T00:10:52.422Z,1009.95
2016-05-20T00:11:52.439Z,1009.93
2016-05-20T00:12:52.442Z,1009.92
2016-05-20T00:13:52.444Z,1009.93
2016-05-20T00:14:52.448Z,1009.94
2016-05-20T00:15:52.450Z,1009.94
2016-05-20T00:16:52.469Z,1009.9
2016-05-20T00:17:52.472Z,1009.88
2016-05-20T00:18:52.474Z,1009.94
2016-05-20T00:19:52.477Z,1009.89
2016-05-20T00:20:52.480Z,1009.89
2016-05-20T00:21:52.497Z,1009.9
2016-05-20T00:22:52.500Z,1009.87
2016-05-20T00:23:52.503Z,1009.89
2016-05-20T00:24:52.505Z,1009.91
2016-05-20T00:25:52.524Z,1009.88
2016-05-20T00:26:52.526Z,1009.9
2016-05-20T00:27:52.529Z,1009.87
2016-05-20T00:28:52.532Z,1009.89
2016-05-20T00:29:52.535Z,1009.97
2016-05-20T00:30:52.538Z,1009.9
2016-05-20T00:31:52.556Z,1009.92
2016-05-20T00:32:52.559Z,1009.88
2016-05-20T00:33:52.562Z,1009.89
2016-05-20T00:34:52.565Z,1009.91
2016-05-20T00:35:52.582Z,1009.9
2016-05-20T00:36:52.585Z,1009.93
2016-05-20T00:37:52.572Z,1009.87
2016-05-20T00:38:52.590Z,1009.84
2016-05-20T00:39:52.593Z,1009.85
2016-05-20T00:40:52.595Z,1009.83
2016-05-20T00:41:52.598Z,1009.78
2016-05-20T00:42:52.600Z,1009.78
2016-05-20T00:43:52.619Z,1009.77
2016-05-20T00:44:52.623Z,1009.71
2016-05-20T00:45:52.625Z,1009.68
2016-05-20T00:46:52.627Z,1009.56
2016-05-20T00:47:52.630Z,1009.53
2016-05-20T00:48:52.649Z,1009.49
2016-05-20T00:49:52.652Z,1009.52
2016-05-20T00:50:52.654Z,1009.54
2016-05-20T00:51:52.657Z,1009.52
2016-05-20T00:52:52.660Z,1009.53
2016-05-20T00:53:52.677Z,1009.53
2016-05-20T00:54:52.680Z,1009.58
2016-05-20T00:55:52.683Z,1009.59
2016-05-20T00:56:52.685Z,1009.53
2016-05-20T00:57:52.688Z,1009.57
2016-05-20T00:58:52.707Z,1009.59
2016-05-20T00:59:52.710Z,1009.61
2016-05-20T01:00:52.712Z,1009.64
2016-05-20T01:01:52.715Z,1009.68
2016-05-20T01:02:52.718Z,1009.67
2016-05-20T01:03:52.721Z,1009.63
2016-05-20T01:04:52.738Z,1009.67
2016-05-20T01:05:52.741Z,1009.68
2016-05-20T01:06:52.743Z,1009.69
2016-05-20T01:07:52.809Z,1009.68
2016-05-20T01:08:52.749Z,1009.71
2016-05-20T01:09:52.767Z,1009.74
2016-05-20T01:10:52.817Z,1009.72
2016-05-20T01:11:52.772Z,1009.78
2016-05-20T01:12:52.775Z,1009.81
2016-05-20T01:13:52.779Z,1009.8
2016-05-20T01:14:52.780Z,1009.81
2016-05-20T01:15:52.799Z,1009.78
2016-05-20T01:16:52.802Z,1009.77
2016-05-20T01:17:52.805Z,1009.75
2016-05-20T01:18:52.808Z,1009.68
2016-05-20T01:19:52.810Z,1009.68
2016-05-20T01:20:52.813Z,1009.69
2016-05-20T01:21:52.830Z,1009.64
2016-05-20T01:22:52.833Z,1009.64
2016-05-20T01:23:52.836Z,1009.66
2016-05-20T01:24:52.838Z,1009.66
2016-05-20T01:25:52.841Z,1009.74
2016-05-20T01:26:52.860Z,1009.72
2016-05-20T01:27:52.863Z,1009.79
2016-05-20T01:28:52.866Z,1009.78
2016-05-20T01:29:52.868Z,1009.8
2016-05-20T01:30:52.871Z,1009.81
2016-05-20T01:31:52.874Z,1009.85
2016-05-20T01:32:52.892Z,1009.85
2016-05-20T01:33:52.895Z,1009.86
2016-05-20T01:34:52.898Z,1009.86
2016-05-20T01:35:52.900Z,1009.91
2016-05-20T01:36:52.918Z,1009.86
2016-05-20T01:37:52.921Z,1009.92
2016-05-20T01:38:52.923Z,1009.89
2016-05-20T01:39:52.926Z,1009.86
2016-05-20T01:40:52.928Z,1009.84
2016-05-20T01:41:52.932Z,1009.87
2016-05-20T01:42:52.951Z,1009.91
2016-05-20T01:43:52.952Z,1009.91
2016-05-20T01:44:52.956Z,1009.86
2016-05-20T01:45:52.958Z,1009.94
2016-05-20T01:46:52.961Z,1009.9
2016-05-20T01:47:53.026Z,1009.93
2016-05-20T01:48:52.981Z,1009.94
2016-05-20T01:49:52.984Z,1009.98
2016-05-20T01:50:52.986Z,1010
2016-05-20T01:51:52.989Z,1010.02
2016-05-20T01:52:52.992Z,1010.07
2016-05-20T01:53:53.010Z,1010.09
2016-05-20T01:54:53.013Z,1010.09
2016-05-20T01:55:53.016Z,1010.07
2016-05-20T01:56:53.019Z,1010.15
2016-05-20T01:57:53.021Z,1010.12
2016-05-20T01:58:53.040Z,1010.13
2016-05-20T01:59:53.043Z,1010.16
2016-05-20T02:00:53.046Z,1010.17
2016-05-20T02:01:53.048Z,1010.18
2016-05-20T02:02:53.051Z,1010.25
2016-05-20T02:03:53.068Z,1010.2
2016-05-20T02:04:53.071Z,1010.17
2016-05-20T02:05:53.074Z,1010.19
2016-05-20T02:06:53.076Z,1010.16
2016-05-20T02:07:53.079Z,1010.12
2016-05-20T02:08:53.082Z,1010.16
2016-05-20T02:09:53.101Z,1010.11
2016-05-20T02:10:53.104Z,1010.19
2016-05-20T02:11:53.107Z,1010.23
2016-05-20T02:12:53.109Z,1010.23
2016-05-20T02:13:53.112Z,1010.21
2016-05-20T02:14:53.130Z,1010.27
2016-05-20T02:15:53.147Z,1010.31
2016-05-20T02:16:53.136Z,1010.3
2016-05-20T02:17:53.138Z,1010.33
2016-05-20T02:18:53.141Z,1010.31
2016-05-20T02:19:53.144Z,1010.34
2016-05-20T02:20:53.161Z,1010.34
2016-05-20T02:21:53.164Z,1010.31
2016-05-20T02:22:53.166Z,1010.29
2016-05-20T02:23:53.186Z,1010.31
2016-05-20T02:24:53.172Z,1010.33
2016-05-20T02:25:53.191Z,1010.34
2016-05-20T02:26:53.194Z,1010.38
2016-05-20T02:27:53.211Z,1010.36
2016-05-20T02:28:53.199Z,1010.34
2016-05-20T02:29:53.201Z,1010.41
2016-05-20T02:30:53.204Z,1010.44
2016-05-20T02:31:53.222Z,1010.43
2016-05-20T02:32:53.224Z,1010.43
2016-05-20T02:33:53.227Z,1010.41
2016-05-20T02:34:53.229Z,1010.43
2016-05-20T02:35:53.232Z,1010.37
2016-05-20T02:36:53.251Z,1010.36
2016-05-20T02:37:53.254Z,1010.41
2016-05-20T02:38:53.257Z,1010.4
2016-05-20T02:39:53.260Z,1010.41
2016-05-20T02:40:53.262Z,1010.42
2016-05-20T02:41:53.265Z,1010.42
2016-05-20T02:42:53.284Z,1010.51
2016-05-20T02:43:53.286Z,1010.47
2016-05-20T02:44:53.367Z,1010.46
2016-05-20T02:45:53.291Z,1010.45
2016-05-20T02:46:53.309Z,1010.47
2016-05-20T02:47:53.297Z,1010.43
2016-05-20T02:48:53.315Z,1010.45
2016-05-20T02:49:53.317Z,1010.44
2016-05-20T02:50:53.320Z,1010.43
2016-05-20T02:51:53.323Z,1010.38
2016-05-20T02:52:53.326Z,1010.37
2016-05-20T02:53:53.344Z,1010.42
2016-05-20T02:54:53.347Z,1010.34
2016-05-20T02:55:53.350Z,1010.37
2016-05-20T02:56:53.352Z,1010.35
2016-05-20T02:57:53.355Z,1010.4
2016-05-20T02:58:53.373Z,1010.35
2016-05-20T02:59:53.376Z,1010.37
2016-05-20T03:00:53.379Z,1010.42
2016-05-20T03:01:53.382Z,1010.44
2016-05-20T03:02:53.385Z,1010.46
2016-05-20T03:03:53.386Z,1010.49
2016-05-20T03:04:53.405Z,1010.42
2016-05-20T03:05:53.392Z,1010.44
2016-05-20T03:06:53.410Z,1010.42
2016-05-20T03:07:53.413Z,1010.4
2016-05-20T03:08:53.415Z,1010.44
2016-05-20T03:09:53.434Z,1010.44
2016-05-20T03:10:53.437Z,1010.46
2016-05-20T03:11:53.439Z,1010.41
2016-05-20T03:12:53.442Z,1010.4
2016-05-20T03:13:53.444Z,1010.38
2016-05-20T03:14:53.447Z,1010.39
2016-05-20T03:15:53.466Z,1010.41
2016-05-20T03:16:53.468Z,1010.39
2016-05-20T03:17:53.470Z,1010.38
2016-05-20T03:18:53.474Z,1010.42
2016-05-20T03:19:53.476Z,1010.37
2016-05-20T03:20:53.478Z,1010.35
2016-05-20T03:21:53.481Z,1010.4
2016-05-20T03:22:53.484Z,1010.42
2016-05-20T03:23:53.502Z,1010.42
2016-05-20T03:24:53.505Z,1010.43
2016-05-20T03:25:53.509Z,1010.43
2016-05-20T03:26:53.510Z,1010.44
2016-05-20T03:27:53.529Z,1010.36
2016-05-20T03:28:53.532Z,1010.38
2016-05-20T03:29:53.535Z,1010.44
2016-05-20T03:30:53.538Z,1010.41
2016-05-20T03:31:53.540Z,1010.47
2016-05-20T03:32:53.543Z,1010.43
2016-05-20T03:33:53.560Z,1010.43
2016-05-20T03:34:53.563Z,1010.46
2016-05-20T03:35:53.566Z,1010.5
2016-05-20T03:36:53.568Z,1010.59
2016-05-20T03:37:53.571Z,1010.56
2016-05-20T03:38:53.590Z,1010.55
2016-05-20T03:39:53.593Z,1010.55
2016-05-20T03:40:53.595Z,1010.5
2016-05-20T03:41:53.598Z,1010.5
2016-05-20T03:42:53.601Z,1010.53
2016-05-20T03:43:53.604Z,1010.55
2016-05-20T03:44:53.622Z,1010.57
2016-05-20T03:45:53.625Z,1010.59
2016-05-20T03:46:53.627Z,1010.55
2016-05-20T03:47:53.630Z,1010.61
2016-05-20T03:48:53.632Z,1010.66
2016-05-20T03:49:53.635Z,1010.66
2016-05-20T03:50:53.653Z,1010.65
2016-05-20T03:51:53.656Z,1010.63
2016-05-20T03:52:53.659Z,1010.65
2016-05-20T03:53:53.662Z,1010.62
2016-05-20T03:54:53.664Z,1010.65
2016-05-20T03:55:53.683Z,1010.67
2016-05-20T03:56:53.686Z,1010.66
2016-05-20T03:57:53.688Z,1010.68
2016-05-20T03:58:53.691Z,1010.69
2016-05-20T03:59:53.693Z,1010.65
2016-05-20T04:00:53.696Z,1010.72
2016-05-20T04:01:53.699Z,1010.78
2016-05-20T04:02:53.717Z,1010.8
2016-05-20T04:03:53.704Z,1010.74
2016-05-20T04:04:53.722Z,1010.74
2016-05-20T04:05:53.725Z,1010.71
2016-05-20T04:06:53.728Z,1010.74
2016-05-20T04:07:53.730Z,1010.72
2016-05-20T04:08:53.748Z,1010.74
2016-05-20T04:09:53.752Z,1010.68
2016-05-20T04:10:53.754Z,1010.68
2016-05-20T04:11:53.757Z,1010.64
2016-05-20T04:12:53.759Z,1010.62
2016-05-20T04:13:53.778Z,1010.64
2016-05-20T04:14:53.765Z,1010.6
2016-05-20T04:15:53.784Z,1010.61
2016-05-20T04:16:53.787Z,1010.61
2016-05-20T04:17:53.789Z,1010.6
2016-05-20T04:18:53.792Z,1010.61
2016-05-20T04:19:53.795Z,1010.61
2016-05-20T04:20:53.812Z,1010.65
2016-05-20T04:21:53.815Z,1010.63
2016-05-20T04:22:53.817Z,1010.65
2016-05-20T04:23:53.820Z,1010.66
2016-05-20T04:24:53.823Z,1010.64
2016-05-20T04:25:53.825Z,1010.62
2016-05-20T04:26:53.828Z,1010.64
2016-05-20T04:27:53.846Z,1010.64
2016-05-20T04:28:53.849Z,1010.62
2016-05-20T04:29:53.853Z,1010.61
2016-05-20T04:30:53.855Z,1010.6
2016-05-20T04:31:53.858Z,1010.56
2016-05-20T04:32:53.860Z,1010.54
2016-05-20T04:33:53.879Z,1010.56
2016-05-20T04:34:53.882Z,1010.52
2016-05-20T04:35:53.884Z,1010.55
2016-05-20T04:36:53.902Z,1010.46
2016-05-20T04:37:53.889Z,1010.44
2016-05-20T04:38:53.955Z,1010.47
2016-05-20T04:39:53.911Z,1010.39
2016-05-20T04:40:53.913Z,1010.51
2016-05-20T04:41:53.916Z,1010.46
2016-05-20T04:42:53.918Z,1010.41
2016-05-20T04:43:53.921Z,1010.44
2016-05-20T04:44:53.940Z,1010.43
2016-05-20T04:45:53.942Z,1010.47
2016-05-20T04:46:53.945Z,1010.5
2016-05-20T04:47:53.947Z,1010.5
2016-05-20T04:48:53.950Z,1010.54
2016-05-20T04:49:53.953Z,1010.52
2016-05-20T04:50:53.970Z,1010.59
2016-05-20T04:51:53.974Z,1010.55
2016-05-20T04:52:53.976Z,1010.57
2016-05-20T04:53:53.979Z,1010.65
2016-05-20T04:54:53.982Z,1010.69
2016-05-20T04:55:54.000Z,1010.58
2016-05-20T04:56:54.002Z,1010.61
2016-05-20T04:57:54.005Z,1010.59
2016-05-20T04:58:54.008Z,1010.59
2016-05-20T04:59:54.027Z,1010.64
2016-05-20T05:00:54.029Z,1010.6
2016-05-20T05:01:54.033Z,1010.58
2016-05-20T05:02:54.034Z,1010.56
2016-05-20T05:03:54.037Z,1010.62
2016-05-20T05:04:54.041Z,1010.63
2016-05-20T05:05:54.058Z,1010.6
2016-05-20T05:06:54.061Z,1010.65
2016-05-20T05:07:54.063Z,1010.68
2016-05-20T05:08:54.066Z,1010.71
2016-05-20T05:09:54.069Z,1010.71
2016-05-20T05:10:54.087Z,1010.72
2016-05-20T05:11:54.090Z,1010.66
2016-05-20T05:12:54.092Z,1010.66
2016-05-20T05:13:54.095Z,1010.7
2016-05-20T05:14:54.098Z,1010.65
2016-05-20T05:15:54.117Z,1010.67
2016-05-20T05:16:54.120Z,1010.71
2016-05-20T05:17:54.122Z,1010.74
2016-05-20T05:18:54.125Z,1010.71
2016-05-20T05:19:54.128Z,1010.7
2016-05-20T05:20:54.131Z,1010.6
2016-05-20T05:21:54.148Z,1010.72
2016-05-20T05:22:54.150Z,1010.62
2016-05-20T05:23:54.154Z,1010.7
2016-05-20T05:24:54.156Z,1010.67
2016-05-20T05:25:54.174Z,1010.6
2016-05-20T05:26:54.177Z,1010.57
2016-05-20T05:27:54.180Z,1010.5
2016-05-20T05:28:54.183Z,1010.52
2016-05-20T05:29:54.186Z,1010.54
2016-05-20T05:30:54.203Z,1010.57
2016-05-20T05:31:54.206Z,1010.54
2016-05-20T05:32:54.209Z,1010.49
2016-05-20T05:33:54.212Z,1010.51
2016-05-20T05:34:54.214Z,1010.46
2016-05-20T05:35:54.217Z,1010.49
2016-05-20T05:36:54.235Z,1010.59
2016-05-20T05:37:54.238Z,1010.56
2016-05-20T05:38:54.257Z,1010.51
2016-05-20T05:39:54.243Z,1010.6
2016-05-20T05:40:54.247Z,1010.51
2016-05-20T05:41:54.265Z,1010.53
2016-05-20T05:42:54.267Z,1010.56
2016-05-20T05:43:54.271Z,1010.59
2016-05-20T05:44:54.272Z,1010.62
2016-05-20T05:45:54.276Z,1010.57
2016-05-20T05:46:54.293Z,1010.59
2016-05-20T05:47:54.296Z,1010.65
2016-05-20T05:48:54.298Z,1010.68
2016-05-20T05:49:54.302Z,1010.71
2016-05-20T05:50:54.304Z,1010.75
2016-05-20T05:51:54.307Z,1010.74
2016-05-20T05:52:54.325Z,1010.72
2016-05-20T05:53:54.328Z,1010.79
2016-05-20T05:54:54.331Z,1010.79
2016-05-20T05:55:54.333Z,1010.74
2016-05-20T05:56:54.337Z,1010.81
2016-05-20T05:57:54.370Z,1010.83
2016-05-20T05:58:54.371Z,1010.84
2016-05-20T05:59:54.418Z,1010.93
2016-05-20T06:00:54.465Z,1010.86
2016-05-20T06:01:54.513Z,1010.89
2016-05-20T06:02:54.560Z,1011.03
2016-05-20T06:03:54.613Z,1010.92
2016-05-20T06:04:54.632Z,1010.85
2016-05-20T06:05:54.651Z,1010.8
2016-05-20T06:06:54.670Z,1010.98
2016-05-20T06:07:54.689Z,1010.91
2016-05-20T06:08:54.705Z,1010.92
2016-05-20T06:09:54.729Z,1010.93
2016-05-20T06:10:54.737Z,1010.88
2016-05-20T06:11:54.746Z,1010.89
2016-05-20T06:12:54.754Z,1010.84
2016-05-20T06:13:54.761Z,1010.86
2016-05-20T06:14:54.781Z,1010.88
2016-05-20T06:15:54.785Z,1010.89
2016-05-20T06:16:54.790Z,1010.88
2016-05-20T06:17:54.795Z,1010.82
2016-05-20T06:18:54.800Z,1010.75
2016-05-20T06:19:54.818Z,1010.8
2016-05-20T06:20:54.823Z,1010.84
2016-05-20T06:21:54.825Z,1010.89
2016-05-20T06:22:54.830Z,1010.83
2016-05-20T06:23:54.833Z,1010.82
2016-05-20T06:24:54.835Z,1010.81
2016-05-20T06:25:54.855Z,1010.83
2016-05-20T06:26:54.873Z,1010.79
2016-05-20T06:27:54.861Z,1010.82
2016-05-20T06:28:54.864Z,1010.76
2016-05-20T06:29:54.866Z,1010.83
2016-05-20T06:30:54.869Z,1010.81
2016-05-20T06:31:54.887Z,1010.84
2016-05-20T06:32:54.890Z,1010.82
2016-05-20T06:33:54.892Z,1010.79
2016-05-20T06:34:54.895Z,1010.79
2016-05-20T06:35:54.898Z,1010.81
2016-05-20T06:36:54.917Z,1010.82
2016-05-20T06:37:54.919Z,1010.8
2016-05-20T06:38:54.922Z,1010.75
2016-05-20T06:39:55.394Z,1010.73
2016-05-20T06:40:54.927Z,1010.82
2016-05-20T06:41:54.929Z,1010.82
2016-05-20T06:42:54.949Z,1010.82
2016-05-20T06:43:54.951Z,1010.78
2016-05-20T06:44:54.954Z,1010.78
2016-05-20T06:45:54.956Z,1010.74
2016-05-20T06:46:54.959Z,1010.73
2016-05-20T06:47:54.977Z,1010.72
2016-05-20T06:48:54.979Z,1010.75
2016-05-20T06:49:54.982Z,1010.74
2016-05-20T06:50:54.985Z,1010.78
2016-05-20T06:51:54.988Z,1010.72
2016-05-20T06:52:54.990Z,1010.66
2016-05-20T06:53:55.009Z,1010.7
2016-05-20T06:54:55.027Z,1010.66
2016-05-20T06:55:55.015Z,1010.64
2016-05-20T06:56:55.017Z,1010.69
2016-05-20T06:57:55.020Z,1010.63
2016-05-20T06:58:55.038Z,1010.65
2016-05-20T06:59:55.040Z,1010.71
2016-05-20T07:00:55.043Z,1010.63
2016-05-20T07:01:55.046Z,1010.76
2016-05-20T07:02:55.048Z,1010.71
2016-05-20T07:03:55.051Z,1010.66
2016-05-20T07:04:55.069Z,1010.67
2016-05-20T07:05:55.072Z,1010.74
2016-05-20T07:06:55.075Z,1010.71
2016-05-20T07:07:55.078Z,1010.69
2016-05-20T07:08:55.096Z,1010.68
2016-05-20T07:09:55.099Z,1010.72
2016-05-20T07:10:55.102Z,1010.74
2016-05-20T07:11:55.105Z,1010.76
2016-05-20T07:12:55.107Z,1010.75
2016-05-20T07:13:55.110Z,1010.69
2016-05-20T07:14:55.128Z,1010.83
2016-05-20T07:15:55.131Z,1010.62
2016-05-20T07:16:55.133Z,1010.69
2016-05-20T07:17:55.136Z,1010.7
2016-05-20T07:18:55.139Z,1010.66
2016-05-20T07:19:55.157Z,1010.76
2016-05-20T07:20:55.143Z,1010.87
2016-05-20T07:21:55.162Z,1010.85
2016-05-20T07:22:55.165Z,1010.91
2016-05-20T07:23:55.168Z,1010.87
2016-05-20T07:24:55.342Z,1010.78
2016-05-20T07:25:55.189Z,1010.84
2016-05-20T07:26:55.192Z,1010.87
2016-05-20T07:27:55.195Z,1010.84
2016-05-20T07:28:55.197Z,1010.83
2016-05-20T07:29:55.200Z,1010.86
2016-05-20T07:30:55.218Z,1010.94
2016-05-20T07:31:55.221Z,1010.86
2016-05-20T07:32:55.223Z,1010.79
2016-05-20T07:33:55.226Z,1010.79
2016-05-20T07:34:55.229Z,1010.86
2016-05-20T07:35:55.231Z,1010.85
2016-05-20T07:36:55.249Z,1010.85
2016-05-20T07:37:55.252Z,1010.83
2016-05-20T07:38:55.255Z,1010.86
2016-05-20T07:39:55.258Z,1010.9
2016-05-20T07:40:55.260Z,1010.87
2016-05-20T07:41:55.278Z,1010.92
2016-05-20T07:42:55.281Z,1010.84
2016-05-20T07:43:55.284Z,1010.83
2016-05-20T07:44:55.286Z,1010.9
2016-05-20T07:45:55.289Z,1010.81
2016-05-20T07:46:55.308Z,1010.81
2016-05-20T07:47:55.310Z,1010.77
2016-05-20T07:48:55.313Z,1010.87
2016-05-20T07:49:55.316Z,1010.78
2016-05-20T07:50:55.319Z,1010.84
2016-05-20T07:51:55.322Z,1010.82
2016-05-20T07:52:55.339Z,1010.85
2016-05-20T07:53:55.342Z,1010.79
2016-05-20T07:54:55.345Z,1010.82
2016-05-20T07:55:55.348Z,1010.87
2016-05-20T07:56:55.350Z,1010.78
2016-05-20T07:57:55.368Z,1010.76
2016-05-20T07:58:55.371Z,1010.84
2016-05-20T07:59:56.093Z,1010.81
2016-05-20T08:00:55.376Z,1010.79
2016-05-20T08:01:55.379Z,1010.75
2016-05-20T08:02:55.398Z,1010.76
2016-05-20T08:03:55.400Z,1010.73
2016-05-20T08:04:55.403Z,1010.73
2016-05-20T08:05:55.406Z,1010.85
2016-05-20T08:06:55.424Z,1010.78
2016-05-20T08:07:55.427Z,1010.74
2016-05-20T08:08:55.523Z,1010.81
2016-05-20T08:09:55.433Z,1010.73
2016-05-20T08:10:55.435Z,1010.79
2016-05-20T08:11:55.438Z,1010.8
2016-05-20T08:12:55.441Z,1010.84
2016-05-20T08:13:55.458Z,1010.92
2016-05-20T08:14:55.461Z,1010.86
2016-05-20T08:15:55.464Z,1010.86
2016-05-20T08:16:55.467Z,1010.88
2016-05-20T08:17:55.469Z,1010.9
2016-05-20T08:18:55.488Z,1010.91
2016-05-20T08:19:57.162Z,1010.84
2016-05-20T08:20:57.055Z,1011.01
2016-05-20T08:21:55.496Z,1010.89
2016-05-20T08:22:56.576Z,1010.78
2016-05-20T08:23:55.516Z,1010.8
2016-05-20T08:24:55.519Z,1010.82
2016-05-20T08:25:55.522Z,1010.83
2016-05-20T08:26:55.524Z,1010.82
2016-05-20T08:27:55.543Z,1010.86
2016-05-20T08:28:55.545Z,1010.9
2016-05-20T08:29:55.548Z,1010.86
2016-05-20T08:30:55.551Z,1010.83
2016-05-20T08:31:55.569Z,1010.88
2016-05-20T08:32:55.573Z,1010.84
2016-05-20T08:33:55.575Z,1010.89
2016-05-20T08:34:55.625Z,1010.81
2016-05-20T08:35:55.580Z,1010.83
2016-05-20T08:36:55.598Z,1010.81
2016-05-20T08:37:55.601Z,1010.85
2016-05-20T08:38:55.603Z,1010.79
2016-05-20T08:39:55.622Z,1010.75
2016-05-20T08:40:55.625Z,1010.88
2016-05-20T08:41:55.628Z,1010.81
2016-05-20T08:42:55.647Z,1010.87
2016-05-20T08:43:55.649Z,1010.8
2016-05-20T08:44:55.651Z,1010.76
2016-05-20T08:45:55.935Z,1010.65
2016-05-20T08:46:55.657Z,1010.79
2016-05-20T08:47:55.660Z,1010.74
2016-05-20T08:48:55.678Z,1010.64
2016-05-20T08:49:55.680Z,1010.72
2016-05-20T08:50:55.683Z,1010.77
2016-05-20T08:51:55.686Z,1010.74
2016-05-20T08:52:55.704Z,1010.77
2016-05-20T08:53:55.707Z,1010.8
2016-05-20T08:54:55.709Z,1010.8
2016-05-20T08:55:55.713Z,1010.85
2016-05-20T08:56:55.730Z,1010.76
2016-05-20T08:57:55.732Z,1010.84
2016-05-20T08:58:55.736Z,1010.9
2016-05-20T08:59:55.738Z,1010.84
2016-05-20T09:00:55.741Z,1010.82
2016-05-20T09:01:55.743Z,1010.93
2016-05-20T09:02:55.762Z,1010.85
2016-05-20T09:03:55.765Z,1010.9
2016-05-20T09:04:55.768Z,1010.88
2016-05-20T09:05:55.786Z,1010.96
2016-05-20T09:06:55.788Z,1011.05
2016-05-20T09:07:55.792Z,1010.99
2016-05-20T09:08:55.794Z,1011
2016-05-20T09:09:55.812Z,1010.93
2016-05-20T09:10:55.815Z,1010.9
2016-05-20T09:11:55.817Z,1010.85
2016-05-20T09:12:55.820Z,1010.87
2016-05-20T09:13:55.823Z,1010.92
2016-05-20T09:14:55.825Z,1010.83
2016-05-20T09:15:55.844Z,1010.83
2016-05-20T09:16:55.847Z,1010.86
2016-05-20T09:17:55.850Z,1010.83
2016-05-20T09:18:55.853Z,1010.91
2016-05-20T09:19:55.871Z,1010.82
2016-05-20T09:20:55.874Z,1010.88
2016-05-20T09:21:55.876Z,1010.8
2016-05-20T09:22:55.894Z,1010.78
2016-05-20T09:23:55.897Z,1010.84
2016-05-20T09:24:55.899Z,1010.87
2016-05-20T09:25:55.902Z,1010.83
2016-05-20T09:26:55.904Z,1010.88
2016-05-20T09:27:55.908Z,1010.91
2016-05-20T09:28:55.926Z,1010.91
2016-05-20T09:29:55.944Z,1010.95
2016-05-20T09:30:55.932Z,1010.98
2016-05-20T09:31:55.934Z,1010.92
2016-05-20T09:32:55.952Z,1010.98
2016-05-20T09:33:55.955Z,1011.13
2016-05-20T09:34:55.957Z,1011.02
2016-05-20T09:35:55.960Z,1010.96
2016-05-20T09:36:55.978Z,1010.98
2016-05-20T09:37:55.981Z,1010.93
2016-05-20T09:38:55.984Z,1010.92
2016-05-20T09:39:55.986Z,1010.92
2016-05-20T09:40:55.989Z,1010.89
2016-05-20T09:41:56.008Z,1010.92
2016-05-20T09:42:56.011Z,1010.87
2016-05-20T09:43:56.014Z,1010.77
2016-05-20T09:44:56.016Z,1010.84
2016-05-20T09:45:56.034Z,1010.85
2016-05-20T09:46:56.036Z,1010.8
2016-05-20T09:47:56.039Z,1010.86
2016-05-20T09:48:56.042Z,1010.81
2016-05-20T09:49:56.045Z,1010.77
2016-05-20T09:50:56.063Z,1010.85
2016-05-20T09:51:56.066Z,1010.89
2016-05-20T09:52:56.069Z,1010.81
2016-05-20T09:53:56.071Z,1010.79
2016-05-20T09:54:56.090Z,1010.85
2016-05-20T09:55:56.092Z,1010.84
2016-05-20T09:56:56.096Z,1010.8
2016-05-20T09:57:56.129Z,1010.81
2016-05-20T09:58:56.115Z,1010.77
2016-05-20T09:59:56.118Z,1010.89
2016-05-20T10:00:56.121Z,1010.87
2016-05-20T10:01:56.124Z,1010.87
2016-05-20T10:02:56.127Z,1010.85
2016-05-20T10:03:56.129Z,1010.9
2016-05-20T10:04:56.132Z,1010.86
2016-05-20T10:05:56.151Z,1010.95
2016-05-20T10:06:56.154Z,1010.91
2016-05-20T10:07:56.156Z,1010.87
2016-05-20T10:08:56.174Z,1010.87
2016-05-20T10:09:56.192Z,1010.95
2016-05-20T10:10:56.179Z,1010.86
2016-05-20T10:11:56.198Z,1010.81
2016-05-20T10:12:56.200Z,1010.94
2016-05-20T10:13:56.203Z,1010.82
2016-05-20T10:14:56.206Z,1010.79
2016-05-20T10:15:56.208Z,1010.82
2016-05-20T10:16:56.227Z,1010.79
2016-05-20T10:17:56.230Z,1010.81
2016-05-20T10:18:56.232Z,1010.85
2016-05-20T10:19:56.250Z,1010.87
2016-05-20T10:20:56.269Z,1010.77
2016-05-20T10:21:56.240Z,1010.84
2016-05-20T10:22:56.258Z,1010.86
2016-05-20T10:23:56.261Z,1010.83
2016-05-20T10:24:56.280Z,1010.85
2016-05-20T10:25:56.266Z,1010.8
2016-05-20T10:26:56.285Z,1010.82
2016-05-20T10:27:56.303Z,1010.85
2016-05-20T10:28:56.290Z,1010.84
2016-05-20T10:29:56.293Z,1010.83
2016-05-20T10:30:56.312Z,1010.91
2016-05-20T10:31:56.314Z,1010.83
2016-05-20T10:32:56.332Z,1010.8
2016-05-20T10:33:56.320Z,1010.92
2016-05-20T10:34:56.323Z,1010.82
2016-05-20T10:35:56.356Z,1010.96
2016-05-20T10:36:56.406Z,1010.89
2016-05-20T10:37:56.377Z,1010.95
2016-05-20T10:38:56.411Z,1010.93
2016-05-20T10:39:56.570Z,1010.9
2016-05-20T10:40:56.417Z,1010.88
2016-05-20T10:41:56.372Z,1010.91
2016-05-20T10:42:56.376Z,1010.96
2016-05-20T10:43:56.392Z,1010.95
2016-05-20T10:44:56.396Z,1011.06
2016-05-20T10:45:56.399Z,1010.92
2016-05-20T10:46:56.464Z,1010.95
2016-05-20T10:47:56.420Z,1010.96
2016-05-20T10:48:56.423Z,1010.96
2016-05-20T10:49:56.425Z,1010.96
2016-05-20T10:50:56.427Z,1010.96
2016-05-20T10:51:56.431Z,1010.97
2016-05-20T10:52:56.449Z,1011.04
2016-05-20T10:53:56.467Z,1011.05
2016-05-20T10:54:56.454Z,1010.95
2016-05-20T10:55:56.504Z,1010.98
2016-05-20T10:56:56.460Z,1011.07
2016-05-20T10:57:56.478Z,1011.02
2016-05-20T10:58:56.481Z,1010.98
2016-05-20T10:59:56.482Z,1010.98
2016-05-20T11:00:56.485Z,1010.97
2016-05-20T11:01:56.488Z,1010.99
2016-05-20T11:02:56.507Z,1010.98
2016-05-20T11:03:56.510Z,1011.03
2016-05-20T11:04:56.512Z,1011.02
2016-05-20T11:05:56.515Z,1011
2016-05-20T11:06:56.534Z,1011.02
2016-05-20T11:07:56.536Z,1011.07
2016-05-20T11:08:56.539Z,1011.15
2016-05-20T11:09:56.557Z,1011.12
2016-05-20T11:10:57.029Z,1011.05
2016-05-20T11:11:56.563Z,1011.08
2016-05-20T11:12:56.596Z,1011.08
2016-05-20T11:13:56.567Z,1011.05
2016-05-20T11:14:56.570Z,1011.13
2016-05-20T11:15:56.589Z,1011.13
2016-05-20T11:16:56.592Z,1011.08
2016-05-20T11:17:56.594Z,1011.07
2016-05-20T11:18:56.597Z,1011.05
2016-05-20T11:19:56.600Z,1011.08
2016-05-20T11:20:56.617Z,1011.12
2016-05-20T11:21:56.620Z,1011.07
2016-05-20T11:22:56.701Z,1011.11
2016-05-20T11:23:56.625Z,1011.06
2016-05-20T11:24:56.628Z,1011.08
2016-05-20T11:25:56.647Z,1011.06
2016-05-20T11:26:56.649Z,1011.07
2016-05-20T11:27:56.668Z,1011.07
2016-05-20T11:28:56.655Z,1011.1
2016-05-20T11:29:56.674Z,1011.16
2016-05-20T11:30:56.677Z,1011.07
2016-05-20T11:31:56.741Z,1011.07
2016-05-20T11:32:56.682Z,1011.07
2016-05-20T11:33:56.699Z,1011.05
2016-05-20T11:34:56.702Z,1011.12
2016-05-20T11:35:56.705Z,1011.08
2016-05-20T11:36:56.707Z,1011.08
2016-05-20T11:37:56.710Z,1011.11
2016-05-20T11:38:56.712Z,1011.22
2016-05-20T11:39:56.747Z,1011.17
2016-05-20T11:40:56.734Z,1011.09
2016-05-20T11:41:56.737Z,1011.17
2016-05-20T11:42:56.739Z,1011.07
2016-05-20T11:43:56.759Z,1011.11
2016-05-20T11:44:56.761Z,1011.06
2016-05-20T11:45:56.763Z,1011.03
2016-05-20T11:46:56.766Z,1011.06
2016-05-20T11:47:56.769Z,1011.11
2016-05-20T11:48:56.787Z,1011.08
2016-05-20T11:49:56.789Z,1011.04
2016-05-20T11:50:56.793Z,1011.04
2016-05-20T11:51:56.794Z,1011.04
2016-05-20T11:52:56.813Z,1011.04
2016-05-20T11:53:56.816Z,1011.1
2016-05-20T11:54:56.819Z,1011.04
2016-05-20T11:55:56.822Z,1011.03
2016-05-20T11:56:56.824Z,1011.07
2016-05-20T11:57:56.827Z,1011.06
2016-05-20T11:58:56.845Z,1011.01
2016-05-20T11:59:56.847Z,1011.05
2016-05-20T12:00:56.850Z,1011.02
2016-05-20T12:01:56.853Z,1011.03
2016-05-20T12:02:56.871Z,1011.06
2016-05-20T12:03:56.874Z,1011.07
2016-05-20T12:04:56.924Z,1011.02
2016-05-20T12:05:56.910Z,1011.12
2016-05-20T12:06:56.898Z,1011.11
2016-05-20T12:07:56.900Z,1011.13